EDLN/MGL METAR and TAF weather

Enter ICAO airport designator
Station Type Date Time Source
EDLN METAR 2021/07/28 02:50 UTC NOAA

EDLN 280250Z AUTO 14003KT 100V170 9999 // BKN024/// 15/14 Q1010


Station Type Date Time Source
EDLN Decoded METAR 2021/07/28 02:50 UTC NOAA

Monchengladbach, Germany (EDLN) 51-13-49N 006-30-16E
Jul 27, 2021 - 10:50 PM EDT / 2021.07.28 0250 UTC
Wind: from the SE (140 degrees) at 3 MPH (3 KT) (direction variable):0
Visibility: greater than 7 mile(s):0
Sky conditions: mostly cloudy
Temperature: 59 F (15 C)
Dew Point: 57 F (14 C)
Relative Humidity: 93%
Pressure (altimeter): 29.83 in. Hg (1010 hPa)
ob: EDLN 280250Z AUTO 14003KT 100V170 9999 // BKN024/// 15/14 Q1010
cycle: 3

Station Type Date Time Source
EDLN TAF 2010/02/22 14:20 UTC NOAA

METAR EDLN 221420Z 18010G20KT 090V240 9999 SCT030 BKN045 11/06 Q0986
RMK ATIS R=

Example: see airport list